Time;durP1;ratioP1;P1;durP2;ratioP2;P2;SDS_P1;SDS_P2;PMS_P1;PMS_P2;Temp;Humidity;BMP_temperature;BMP_pressure;BME280_temperature;BME280_humidity;BME280_pressure;Samples;Min_cycle;Max_cycle;Signal;HPM_P1;HPM_P2
2023/03/01 00:02:21;;;;;;;18.17;8.35;;;;;;;-1.86;95.08;99835.13;5072375;28;20492;-81
2023/03/01 00:04:48;;;;;;;15.90;8.38;;;;;;;-1.94;94.29;99814.25;5073286;28;20048;-81
2023/03/01 00:07:15;;;;;;;17.52;8.85;;;;;;;-1.85;94.17;99824.38;5072279;28;20049;-81
2023/03/01 00:09:41;;;;;;;15.82;8.68;;;;;;;-1.71;94.31;99849.38;5071377;28;20051;-80
2023/03/01 00:12:08;;;;;;;16.40;8.00;;;;;;;-1.81;93.45;99822.38;5068394;28;20048;-81
2023/03/01 00:14:34;;;;;;;19.55;8.48;;;;;;;-1.74;93.99;99837.06;5070253;28;20476;-81
2023/03/01 00:17:01;;;;;;;19.92;10.32;;;;;;;-1.71;93.55;99834.22;5072745;28;20052;-81
2023/03/01 00:19:29;;;;;;;17.20;8.43;;;;;;;-1.82;93.58;99820.69;5072158;28;20179;-81
2023/03/01 00:21:56;;;;;;;16.27;9.30;;;;;;;-1.77;94.14;99831.91;5072533;28;20067;-81
2023/03/01 00:24:22;;;;;;;19.20;9.07;;;;;;;-1.85;94.03;99844.81;5072168;28;20055;-81
2023/03/01 00:26:55;;;;;;;20.48;8.80;;;;;;;-1.85;94.14;99859.03;5054756;28;20044;-81
2023/03/01 00:29:21;;;;;;;21.13;10.68;;;;;;;-1.85;94.72;99871.47;5055983;28;21028;-81
2023/03/01 00:31:48;;;;;;;20.98;10.13;;;;;;;-2.04;94.94;99847.72;5068962;28;20053;-81
2023/03/01 00:34:14;;;;;;;20.52;10.85;;;;;;;-2.16;96.21;99838.59;5073631;28;20049;-80
2023/03/01 00:36:42;;;;;;;21.30;10.07;;;;;;;-2.18;96.35;99841.34;5074543;28;20052;-81
2023/03/01 00:39:12;;;;;;;21.23;9.75;;;;;;;-2.25;96.70;99853.31;5071605;28;20048;-81
2023/03/01 00:41:39;;;;;;;25.48;10.63;;;;;;;-2.31;97.03;99861.63;5065427;28;20049;-81
2023/03/01 00:44:06;;;;;;;19.42;9.98;;;;;;;-2.42;97.30;99846.25;5073943;28;20084;-81
2023/03/01 00:46:36;;;;;;;20.80;9.98;;;;;;;-2.34;98.53;99870.66;5070875;28;20048;-81
2023/03/01 00:49:04;;;;;;;;;;;;;;;-2.38;99.39;99874.44;5072457;28;20055;-81
2023/03/01 00:51:34;;;;;;;21.85;10.13;;;;;;;-2.44;99.79;99874.75;5072561;28;19924;-81
2023/03/01 00:54:03;;;;;;;26.90;9.63;;;;;;;-2.67;99.99;99847.59;5073557;28;20056;-80
2023/03/01 00:56:30;;;;;;;23.90;10.57;;;;;;;-2.67;99.81;99842.28;5074111;28;20063;-81
2023/03/01 00:58:57;;;;;;;19.38;9.63;;;;;;;-2.51;100.00;99870.75;5073983;28;20656;-81
2023/03/01 01:01:27;;;;;;;18.10;9.70;;;;;;;-2.53;99.96;99868.16;5073201;28;20056;-81
2023/03/01 01:03:54;;;;;;;;;;;;;;;-2.53;99.88;99869.94;5067550;28;20407;-81
2023/03/01 01:06:24;;;;;;;19.90;9.63;;;;;;;-2.59;99.71;99851.66;5073426;28;20283;-81
2023/03/01 01:08:51;;;;;;;;;;;;;;;-2.61;100.00;99861.53;5066288;28;20049;-80
2023/03/01 01:11:21;;;;;;;23.00;10.38;;;;;;;-2.61;100.00;99859.72;5066723;28;19925;-81
2023/03/01 01:13:48;;;;;;;17.50;10.02;;;;;;;-2.61;100.00;99861.53;5061682;28;20067;-81
2023/03/01 01:16:16;;;;;;;16.27;9.45;;;;;;;-2.49;99.61;99858.19;5061126;28;20048;-81
2023/03/01 01:18:42;;;;;;;23.20;10.73;;;;;;;-2.35;98.22;99841.44;5069784;28;20055;-80
2023/03/01 01:21:11;;;;;;;20.10;9.65;;;;;;;-2.28;98.09;99848.16;5068811;28;20055;-80
2023/03/01 01:23:39;;;;;;;22.13;9.95;;;;;;;-2.26;97.37;99816.94;5069144;28;20048;-81
2023/03/01 01:26:07;;;;;;;18.47;10.17;;;;;;;-2.07;96.77;99832.75;5071161;28;20047;-81
2023/03/01 01:28:35;;;;;;;22.13;10.32;;;;;;;-2.01;96.06;99831.53;5071275;28;20045;-80
2023/03/01 01:31:02;;;;;;;21.73;10.20;;;;;;;-1.92;95.80;99833.66;5069728;28;20514;-81
2023/03/01 01:33:29;;;;;;;20.43;9.93;;;;;;;-1.98;96.00;99821.56;5067948;28;20048;-80
2023/03/01 01:35:55;;;;;;;22.00;10.27;;;;;;;-1.90;95.41;99829.09;5071158;28;20063;-80
2023/03/01 01:38:22;;;;;;;22.10;10.27;;;;;;;-1.95;96.15;99820.53;5069366;28;20380;-80
2023/03/01 01:40:50;;;;;;;19.43;9.70;;;;;;;-1.86;95.10;99825.31;5066272;28;20083;-80
2023/03/01 01:43:21;;;;;;;22.02;10.15;;;;;;;-1.85;95.13;99819.03;5063405;28;20059;-81
2023/03/01 01:45:49;;;;;;;22.25;10.25;;;;;;;-1.82;95.27;99821.53;5050842;28;20051;-81
2023/03/01 01:48:20;;;;;;;22.98;10.40;;;;;;;-1.85;96.02;99810.16;5051518;28;20045;-81
2023/03/01 01:50:54;;;;;;;25.17;11.55;;;;;;;-1.69;95.99;99820.81;5060826;28;20381;-81
2023/03/01 01:53:21;;;;;;;23.63;9.40;;;;;;;-1.71;95.19;99812.03;5075837;28;20055;-81
2023/03/01 01:55:52;;;;;;;16.42;9.65;;;;;;;-1.79;94.96;99786.69;5090978;28;20079;-81
2023/03/01 01:58:21;;;;;;;22.08;9.88;;;;;;;-1.59;95.02;99803.31;5075996;28;20121;-81
2023/03/01 02:00:50;;;;;;;26.67;10.32;;;;;;;-1.76;94.13;99753.69;5065589;28;20050;-80
2023/03/01 02:03:22;;;;;;;17.50;10.02;;;;;;;-1.73;93.98;99760.59;5066237;28;20405;-81
2023/03/01 02:05:56;;;;;;;20.95;9.82;;;;;;;-1.69;93.64;99768.31;5035371;28;20049;-81
2023/03/01 02:08:25;;;;;;;24.85;10.80;;;;;;;-1.47;93.33;99788.38;5070422;28;20052;-81
2023/03/01 02:10:53;;;;;;;20.13;10.20;;;;;;;-1.55;92.89;99764.84;5068718;28;20364;-80
2023/03/01 02:13:20;;;;;;;21.52;10.55;;;;;;;-1.57;93.78;99764.06;5070116;28;20059;-81
2023/03/01 02:15:46;;;;;;;22.08;10.45;;;;;;;-1.56;93.13;99765.78;5068729;28;20050;-81
2023/03/01 02:18:18;;;;;;;22.55;10.23;;;;;;;-1.58;93.24;99753.50;5068409;28;20064;-81
2023/03/01 02:20:54;;;;;;;18.42;9.20;;;;;;;-1.63;92.99;99743.09;5058389;28;20072;-80
2023/03/01 02:23:21;;;;;;;18.50;10.15;;;;;;;-1.48;93.20;99755.50;5066264;28;20052;-80
2023/03/01 02:25:56;;;;;;;21.10;9.65;;;;;;;-1.54;92.53;99737.22;5061131;28;20132;-80
2023/03/01 02:28:31;;;;;;;14.48;8.40;;;;;;;-1.30;92.72;99763.34;5071670;28;20137;-80
2023/03/01 02:33:42;;;;;;;21.50;10.13;;;;;;;-1.34;91.99;99732.47;5068863;28;20060;-80
2023/03/01 02:36:13;;;;;;;15.85;9.13;;;;;;;-1.23;91.19;99747.78;5067659;28;20037;-80
2023/03/01 02:38:40;;;;;;;19.27;9.63;;;;;;;-1.13;91.86;99755.16;5064080;28;20046;-80
2023/03/01 02:41:08;;;;;;;19.88;9.45;;;;;;;-1.18;91.98;99737.72;5064899;28;20052;-80
2023/03/01 02:43:37;;;;;;;20.15;9.05;;;;;;;-1.28;91.53;99710.72;5068595;28;20052;-80
2023/03/01 02:46:09;;;;;;;22.83;10.70;;;;;;;-1.14;91.81;99732.09;5074945;28;20279;-80
2023/03/01 02:48:41;;;;;;;22.23;10.63;;;;;;;-1.14;92.39;99736.56;5070430;28;20052;-80
2023/03/01 02:51:26;;;;;;;17.95;9.38;;;;;;;-1.26;90.82;99707.03;5064299;28;20052;-81
2023/03/01 02:54:05;;;;;;;19.88;10.88;;;;;;;-1.05;91.90;99743.13;5065308;28;20052;-80
2023/03/01 02:56:32;;;;;;;24.13;11.27;;;;;;;-1.08;91.31;99745.03;5072982;28;20059;-80
2023/03/01 02:59:00;;;;;;;23.55;10.40;;;;;;;-1.23;91.59;99710.44;5074380;28;20051;-80
2023/03/01 03:01:36;;;;;;;16.17;9.02;;;;;;;-1.13;91.08;99733.81;5065733;28;20094;-80
2023/03/01 03:04:03;;;;;;;22.90;10.60;;;;;;;-1.09;90.73;99737.13;5066121;28;20041;-80
2023/03/01 03:06:30;;;;;;;18.38;9.02;;;;;;;-1.05;89.90;99735.09;5064468;28;20052;-80
2023/03/01 03:08:56;;;;;;;17.88;9.57;;;;;;;-1.03;90.61;99738.56;5072958;28;20060;-80
2023/03/01 03:11:23;;;;;;;17.98;10.63;;;;;;;-1.04;91.00;99726.16;5073978;28;20052;-80
2023/03/01 03:13:49;;;;;;;19.88;9.55;;;;;;;-0.98;90.41;99740.00;5072415;28;20400;-80
2023/03/01 03:16:17;;;;;;;25.77;12.13;;;;;;;-1.16;90.78;99709.09;5059607;28;20127;-79
2023/03/01 03:18:44;;;;;;;21.40;9.45;;;;;;;-1.16;90.33;99695.75;5062787;28;20056;-80
2023/03/01 03:21:15;;;;;;;25.45;10.93;;;;;;;-0.97;89.67;99733.69;5073656;28;20127;-80
2023/03/01 03:23:42;;;;;;;22.23;9.90;;;;;;;-0.96;89.22;99722.06;5071472;28;20053;-80
2023/03/01 03:26:09;;;;;;;21.75;9.90;;;;;;;-0.93;89.92;99723.69;5055482;28;20055;-79
2023/03/01 03:28:39;;;;;;;19.17;9.75;;;;;;;-0.95;89.79;99726.44;5053610;28;20127;-80
2023/03/01 03:31:06;;;;;;;;;;;;;;;-0.95;90.36;99723.78;5054324;28;20045;-79
2023/03/01 03:33:34;;;;;;;17.10;9.45;;;;;;;-0.97;89.84;99723.00;5069045;28;19927;-80
2023/03/01 03:36:01;;;;;;;20.80;10.07;;;;;;;-1.03;90.00;99698.53;5084503;28;20067;-79
2023/03/01 03:38:27;;;;;;;19.75;9.82;;;;;;;-1.06;90.19;99702.25;5069862;28;20052;-80
2023/03/01 03:41:02;;;;;;;21.60;10.30;;;;;;;-1.04;89.47;99708.31;5064298;28;20044;-80
2023/03/01 03:43:29;;;;;;;23.30;10.88;;;;;;;-1.01;89.43;99702.81;5063644;28;20470;-80
2023/03/01 03:45:56;;;;;;;21.65;9.70;;;;;;;-1.07;90.59;99697.84;5073079;28;20147;-80
2023/03/01 03:48:24;;;;;;;22.27;10.30;;;;;;;-1.09;89.41;99684.59;5055503;28;20059;-80
2023/03/01 03:50:54;;;;;;;21.45;10.40;;;;;;;-0.98;89.80;99697.28;5072994;28;20053;-80
2023/03/01 03:53:23;;;;;;;18.33;8.02;;;;;;;-0.92;89.05;99710.22;5064656;28;20059;-80
2023/03/01 03:55:51;;;;;;;19.70;10.30;;;;;;;-0.96;88.38;99702.53;5065546;28;20055;-80
2023/03/01 03:58:21;;;;;;;18.42;9.48;;;;;;;-0.97;88.59;99706.13;5065682;28;20045;-80
2023/03/01 04:00:49;;;;;;;22.88;10.32;;;;;;;-1.12;89.96;99673.28;5065682;28;20353;-80
2023/03/01 04:03:18;;;;;;;22.98;10.82;;;;;;;-0.96;89.36;99705.19;5070787;28;20052;-81
2023/03/01 04:05:45;;;;;;;19.65;10.70;;;;;;;-0.97;89.12;99700.81;5072874;28;20136;-80
2023/03/01 04:08:14;;;;;;;25.75;10.93;;;;;;;-1.18;89.70;99671.84;5072833;28;20054;-80
2023/03/01 04:10:42;;;;;;;17.42;8.48;;;;;;;-1.15;89.45;99676.16;5072553;28;20048;-80
2023/03/01 04:13:12;;;;;;;20.60;11.13;;;;;;;-1.08;90.33;99701.50;5071478;28;20044;-80
2023/03/01 04:15:39;;;;;;;21.02;10.15;;;;;;;-1.19;90.03;99674.63;5072844;28;20051;-80
2023/03/01 04:18:06;;;;;;;21.63;11.07;;;;;;;-1.07;90.56;99698.72;5072859;28;20053;-80
2023/03/01 04:20:36;;;;;;;21.70;10.60;;;;;;;-1.18;89.95;99687.84;5073063;28;20045;-81
2023/03/01 04:23:12;;;;;;;26.30;11.23;;;;;;;-1.18;89.95;99682.53;5066069;28;20123;-80
2023/03/01 04:25:42;;;;;;;20.50;10.25;;;;;;;-1.13;90.54;99692.91;5072313;28;20143;-80
2023/03/01 04:28:09;;;;;;;23.90;11.50;;;;;;;-1.22;90.27;99680.16;5067396;28;20048;-80
2023/03/01 04:30:36;;;;;;;21.60;9.45;;;;;;;-1.18;91.31;99695.88;5072804;28;20404;-81
2023/03/01 04:33:05;;;;;;;22.63;10.38;;;;;;;-1.33;90.59;99671.00;5071303;28;20049;-80
2023/03/01 04:35:31;;;;;;;24.10;11.68;;;;;;;-1.20;90.55;99703.13;5072090;28;20056;-80
2023/03/01 04:37:58;;;;;;;19.95;9.57;;;;;;;-1.43;90.40;99657.41;5071594;28;20048;-80
2023/03/01 04:40:25;;;;;;;25.15;10.80;;;;;;;-1.32;90.29;99679.88;5059395;28;20053;-80
2023/03/01 04:42:53;;;;;;;18.58;11.70;;;;;;;-1.46;90.37;99662.06;5070754;28;20060;-80
2023/03/01 04:45:20;;;;;;;30.75;12.18;;;;;;;-1.32;90.73;99691.41;5063575;28;20052;-80
2023/03/01 04:47:47;;;;;;;26.08;10.50;;;;;;;-1.40;90.81;99685.72;5071753;28;20415;-80
2023/03/01 04:50:17;;;;;;;21.35;10.77;;;;;;;-1.34;90.24;99698.66;5071844;28;20434;-80
2023/03/01 04:52:44;;;;;;;24.80;11.00;;;;;;;-1.35;90.85;99709.44;5069861;28;20049;-80
2023/03/01 04:55:11;;;;;;;22.13;10.70;;;;;;;-1.41;91.81;99708.00;5066758;28;20155;-81
2023/03/01 04:57:39;;;;;;;18.98;10.55;;;;;;;-1.44;92.03;99708.19;5070726;28;20052;-80
2023/03/01 05:00:19;;;;;;;19.48;9.82;;;;;;;-1.48;91.94;99711.97;5072142;28;20044;-80
2023/03/01 05:02:48;;;;;;;22.67;11.05;;;;;;;-1.59;92.97;99701.97;5070087;28;20044;-80
2023/03/01 05:05:14;;;;;;;23.75;11.18;;;;;;;-1.49;92.58;99719.13;5053396;28;20063;-80
2023/03/01 05:07:41;;;;;;;22.65;11.60;;;;;;;-1.76;93.53;99676.38;5054995;28;20045;-80
2023/03/01 05:10:09;;;;;;;25.77;10.85;;;;;;;-1.68;93.49;99706.06;5051712;28;20041;-80
2023/03/01 05:12:37;;;;;;;23.60;11.00;;;;;;;-1.87;93.64;99679.66;5069343;28;20480;-80
2023/03/01 05:15:06;;;;;;;20.75;10.90;;;;;;;-1.84;94.65;99703.47;5071804;28;20076;-80
2023/03/01 05:17:35;;;;;;;24.33;11.68;;;;;;;-1.80;93.98;99709.47;5071644;28;20479;-80
2023/03/01 05:20:03;;;;;;;19.33;10.18;;;;;;;-2.04;95.21;99675.38;5072181;28;20059;-80
2023/03/01 05:22:30;;;;;;;21.33;11.23;;;;;;;-2.14;96.75;99687.50;5067825;28;20052;-80
2023/03/01 05:24:56;;;;;;;23.83;12.05;;;;;;;-2.08;96.18;99704.94;5071312;28;20504;-80
2023/03/01 05:27:23;;;;;;;25.13;11.90;;;;;;;-2.20;96.91;99694.09;5070373;28;20147;-80
2023/03/01 05:29:50;;;;;;;27.23;11.98;;;;;;;-2.22;97.56;99709.28;5071340;28;20049;-80
2023/03/01 05:32:17;;;;;;;23.60;12.43;;;;;;;-2.30;98.09;99700.91;5070138;28;20385;-80
2023/03/01 05:34:46;;;;;;;22.05;11.10;;;;;;;-2.33;98.20;99701.06;5063749;28;20480;-80
2023/03/01 05:37:13;;;;;;;30.05;12.63;;;;;;;-2.37;98.05;99688.88;5067141;28;20041;-80
2023/03/01 05:39:41;;;;;;;22.35;11.50;;;;;;;-2.35;98.55;99706.50;5066699;28;20381;-81
2023/03/01 05:42:11;;;;;;;26.60;12.38;;;;;;;-2.44;99.10;99698.16;5069462;28;20422;-81
2023/03/01 05:44:38;;;;;;;24.38;11.88;;;;;;;-2.44;99.51;99706.16;5072430;28;20484;-80
2023/03/01 05:47:05;;;;;;;20.20;11.18;;;;;;;-2.68;100.00;99664.03;5069879;28;20048;-81
2023/03/01 05:49:32;;;;;;;21.55;11.07;;;;;;;-2.65;100.00;99681.63;5068890;28;20045;-80
2023/03/01 05:52:02;;;;;;;30.63;11.75;;;;;;;-2.52;100.00;99693.28;5064721;28;20048;-80
2023/03/01 05:54:29;;;;;;;;;;;;;;;-2.52;100.00;99694.13;5070976;28;20054;-79
2023/03/01 05:56:56;;;;;;;24.15;12.38;;;;;;;-2.72;100.00;99659.84;5071545;28;19927;-80
2023/03/01 05:59:22;;;;;;;30.45;11.93;;;;;;;-2.68;100.00;99674.66;5072442;28;20048;-80
2023/03/01 06:01:49;;;;;;;24.02;12.43;;;;;;;-2.52;100.00;99696.81;5069424;28;20051;-80
2023/03/01 06:04:16;;;;;;;23.17;10.68;;;;;;;-2.65;100.00;99677.16;5048745;28;20040;-80
2023/03/01 06:06:43;;;;;;;26.48;12.45;;;;;;;-2.65;100.00;99673.66;5069247;28;20040;-80
2023/03/01 06:09:11;;;;;;;24.42;12.48;;;;;;;-2.46;100.00;99694.75;5069941;28;20052;-80
2023/03/01 06:11:38;;;;;;;31.67;12.95;;;;;;;-2.61;100.00;99696.50;5070001;28;20055;-80
2023/03/01 06:14:06;;;;;;;27.35;12.38;;;;;;;-2.58;100.00;99691.84;5067661;28;20048;-80
2023/03/01 06:16:32;;;;;;;25.63;12.35;;;;;;;-2.62;100.00;99673.47;5066262;28;20052;-80
2023/03/01 06:18:59;;;;;;;27.52;11.57;;;;;;;-2.44;100.00;99691.03;5064706;28;20045;-80
2023/03/01 06:21:26;;;;;;;23.48;11.52;;;;;;;-2.36;100.00;99685.28;5068697;28;20131;-80
2023/03/01 06:23:52;;;;;;;27.90;12.63;;;;;;;-2.24;100.00;99695.22;5069705;28;20056;-80
2023/03/01 06:26:20;;;;;;;32.03;12.90;;;;;;;-2.26;100.00;99697.09;5062631;28;20094;-80
2023/03/01 06:28:47;;;;;;;24.23;11.98;;;;;;;-2.48;100.00;99668.22;5069000;28;20044;-81
2023/03/01 06:31:14;;;;;;;29.38;13.15;;;;;;;-2.43;100.00;99689.25;5066534;28;20045;-81
2023/03/01 06:33:40;;;;;;;28.27;13.23;;;;;;;-2.42;100.00;99701.63;5063407;28;20056;-81
2023/03/01 06:36:09;;;;;;;26.83;12.15;;;;;;;-2.60;100.00;99684.91;5067095;28;20131;-81
2023/03/01 06:38:35;;;;;;;28.10;13.27;;;;;;;-2.49;100.00;99701.09;5068723;28;20045;-79
2023/03/01 06:41:02;;;;;;;27.80;12.30;;;;;;;-2.50;100.00;99684.28;5076577;28;20048;-78
2023/03/01 06:43:30;;;;;;;22.92;11.73;;;;;;;-2.59;100.00;99666.19;5069651;28;20049;-79
2023/03/01 06:45:57;;;;;;;25.52;12.65;;;;;;;-2.41;100.00;99690.88;5071253;28;20484;-78
2023/03/01 06:48:23;;;;;;;22.38;11.70;;;;;;;-2.57;100.00;99663.44;5069009;28;20057;-78
2023/03/01 06:50:50;;;;;;;27.10;11.90;;;;;;;-2.43;100.00;99691.91;5070316;28;20507;-78
2023/03/01 06:53:16;;;;;;;25.73;12.50;;;;;;;-2.42;100.00;99675.00;5069609;28;20046;-79
2023/03/01 06:55:43;;;;;;;26.08;12.80;;;;;;;-2.45;100.00;99676.03;5070518;28;20049;-80
2023/03/01 06:58:10;;;;;;;21.63;10.63;;;;;;;-2.26;99.57;99674.94;5067162;28;20048;-79
2023/03/01 07:00:40;;;;;;;25.80;12.43;;;;;;;-2.17;100.00;99687.69;5070694;28;20110;-80
2023/03/01 07:03:07;;;;;;;23.92;12.25;;;;;;;-2.22;99.55;99672.00;5068056;28;20051;-80
2023/03/01 07:05:35;;;;;;;22.58;12.07;;;;;;;-2.23;99.96;99651.66;5066051;28;20074;-80
2023/03/01 07:08:05;;;;;;;27.95;12.27;;;;;;;-2.07;96.65;99656.91;5069167;28;20553;-80
2023/03/01 07:10:31;;;;;;;25.50;11.20;;;;;;;-1.81;93.78;99667.78;5071219;28;20049;-80
2023/03/01 07:13:01;;;;;;;26.13;10.82;;;;;;;-1.79;94.26;99641.91;5054535;28;20637;-80
2023/03/01 07:15:28;;;;;;;16.13;8.38;;;;;;;-1.62;92.03;99660.34;5063084;28;20052;-80
2023/03/01 07:17:57;;;;;;;25.35;11.15;;;;;;;-1.59;91.60;99639.81;5069799;28;20123;-80
2023/03/01 07:20:25;;;;;;;29.03;12.07;;;;;;;-1.49;91.68;99662.25;5071337;28;20049;-80
2023/03/01 07:22:51;;;;;;;27.70;11.50;;;;;;;-1.47;91.02;99663.88;5070464;28;20306;-80
2023/03/01 07:25:18;;;;;;;26.85;12.60;;;;;;;-1.39;90.96;99666.06;5068678;28;20052;-80
2023/03/01 07:27:49;;;;;;;22.20;11.07;;;;;;;-1.38;90.51;99669.59;5059164;28;20049;-80
2023/03/01 07:30:19;;;;;;;25.23;11.90;;;;;;;-1.33;88.66;99651.50;5066558;28;20047;-80
2023/03/01 07:32:46;;;;;;;16.95;8.48;;;;;;;-1.17;87.80;99670.06;5061782;28;20040;-79
2023/03/01 07:35:14;;;;;;;26.27;11.02;;;;;;;-1.30;88.44;99651.28;5070104;28;20442;-80
2023/03/01 07:37:41;;;;;;;24.85;10.98;;;;;;;-1.36;87.34;99633.00;5067183;28;20511;-80
2023/03/01 07:40:12;;;;;;;27.08;12.13;;;;;;;-1.22;87.83;99656.13;5063565;28;20047;-80
2023/03/01 07:42:38;;;;;;;28.70;12.95;;;;;;;-1.07;87.07;99658.69;5073316;28;20123;-80
2023/03/01 07:45:06;;;;;;;30.17;11.73;;;;;;;-1.00;87.67;99648.47;5074309;28;20092;-80
2023/03/01 07:47:33;;;;;;;23.05;11.95;;;;;;;-1.04;86.27;99625.59;5071723;28;20080;-80
2023/03/01 07:50:00;;;;;;;18.83;7.63;;;;;;;-0.99;85.25;99634.19;5073352;28;20048;-80
2023/03/01 07:52:29;;;;;;;23.67;11.70;;;;;;;-0.91;85.76;99655.88;5071982;28;20538;-80
2023/03/01 07:54:55;;;;;;;30.25;11.02;;;;;;;-0.82;85.63;99648.25;5073191;28;20075;-80
2023/03/01 07:57:22;;;;;;;15.68;8.35;;;;;;;-0.84;85.22;99650.13;5056063;28;20052;-79
2023/03/01 07:59:49;;;;;;;20.98;9.55;;;;;;;-0.80;85.18;99646.31;5070173;28;20048;-80
2023/03/01 08:02:15;;;;;;;12.82;8.55;;;;;;;-0.89;84.28;99623.75;5060300;28;20139;-80
2023/03/01 08:04:42;;;;;;;17.05;10.02;;;;;;;-0.94;83.99;99608.03;5070903;28;20052;-80
2023/03/01 08:07:09;;;;;;;26.98;10.02;;;;;;;-0.76;83.27;99643.34;5070329;28;20044;-80
2023/03/01 08:09:37;;;;;;;17.13;9.27;;;;;;;-0.83;83.06;99619.81;5061658;28;20140;-79
2023/03/01 08:12:04;;;;;;;19.60;9.20;;;;;;;-0.77;82.90;99620.28;5070532;28;20048;-80
2023/03/01 08:14:31;;;;;;;25.88;11.25;;;;;;;-0.73;83.42;99610.25;5070817;28;20056;-80
2023/03/01 08:16:58;;;;;;;25.33;12.88;;;;;;;-0.66;83.02;99608.00;5069315;28;20127;-79
2023/03/01 08:19:24;;;;;;;23.70;12.13;;;;;;;-0.52;82.52;99621.31;5066327;28;20045;-80
2023/03/01 08:21:51;;;;;;;21.35;10.48;;;;;;;-0.43;82.60;99626.03;5068903;28;20048;-80
2023/03/01 08:24:17;;;;;;;22.88;10.55;;;;;;;-0.40;82.25;99616.97;5069347;28;20045;-80
2023/03/01 08:26:45;;;;;;;22.63;11.02;;;;;;;-0.21;83.83;99628.09;5070509;28;20041;-81
2023/03/01 08:29:12;;;;;;;20.65;9.73;;;;;;;-0.03;81.12;99633.13;5068453;28;20044;-80
2023/03/01 08:31:40;;;;;;;24.42;10.55;;;;;;;-0.12;80.18;99618.59;5067245;28;20439;-80
2023/03/01 08:34:10;;;;;;;25.67;11.43;;;;;;;0.16;80.59;99643.41;5069397;28;20507;-80
2023/03/01 08:36:39;;;;;;;25.35;11.93;;;;;;;0.03;79.74;99610.47;5068680;28;20060;-80
2023/03/01 08:39:07;;;;;;;24.63;10.20;;;;;;;0.20;78.72;99618.19;5069429;28;20046;-80
2023/03/01 08:41:34;;;;;;;28.27;11.82;;;;;;;0.30;77.32;99624.59;5068044;28;20056;-81
2023/03/01 08:44:02;;;;;;;21.95;11.52;;;;;;;0.20;77.46;99601.25;5067654;28;20044;-81
2023/03/01 08:46:30;;;;;;;30.08;11.57;;;;;;;0.40;78.11;99618.59;5069016;28;20049;-81
2023/03/01 08:48:56;;;;;;;22.98;11.13;;;;;;;0.39;77.55;99620.38;5066803;28;20055;-81
2023/03/01 08:51:24;;;;;;;22.80;11.30;;;;;;;0.40;77.25;99619.44;5067871;28;20492;-81
2023/03/01 08:53:50;;;;;;;27.67;10.70;;;;;;;0.53;77.07;99635.47;5064951;28;20052;-81
2023/03/01 08:56:19;;;;;;;29.92;11.63;;;;;;;0.57;76.30;99622.72;5068155;28;20040;-81
2023/03/01 08:58:46;;;;;;;24.02;11.35;;;;;;;0.67;77.01;99621.09;5067835;28;20486;-81
2023/03/01 09:01:17;;;;;;;23.60;11.57;;;;;;;0.63;76.38;99615.13;5067722;28;20052;-81
2023/03/01 09:03:45;;;;;;;20.83;10.30;;;;;;;0.67;76.51;99610.41;5064435;28;20051;-81
2023/03/01 09:06:12;;;;;;;21.73;11.48;;;;;;;0.63;75.72;99620.50;5064753;28;20056;-81
2023/03/01 09:08:40;;;;;;;21.08;10.05;;;;;;;0.59;75.94;99600.25;5069048;28;20498;-80
2023/03/01 09:11:08;;;;;;;24.25;12.27;;;;;;;0.62;75.63;99605.38;5069638;28;20052;-81
2023/03/01 09:13:36;;;;;;;27.55;10.70;;;;;;;0.63;76.49;99592.84;5066270;28;20048;-81
2023/03/01 09:16:05;;;;;;;27.55;11.38;;;;;;;0.75;75.34;99583.94;5053704;28;20048;-80
2023/03/01 09:18:34;;;;;;;28.33;13.48;;;;;;;0.74;75.32;99573.34;5068840;28;20424;-80
2023/03/01 09:21:07;;;;;;;25.40;11.35;;;;;;;0.95;75.26;99579.81;5067707;28;20046;-81
2023/03/01 09:23:34;;;;;;;19.00;10.27;;;;;;;0.93;74.38;99576.38;5062401;28;20053;-80
2023/03/01 09:26:00;;;;;;;24.73;11.45;;;;;;;1.06;74.24;99581.69;5069445;28;20056;-80
2023/03/01 09:28:30;;;;;;;23.58;11.68;;;;;;;1.00;73.99;99572.28;5069756;28;20055;-81
2023/03/01 09:30:59;;;;;;;25.35;13.00;;;;;;;1.01;73.78;99549.91;5071630;28;20131;-77
2023/03/01 09:33:25;;;;;;;21.73;9.23;;;;;;;1.15;72.93;99546.19;5067967;28;20102;-77
2023/03/01 09:35:58;;;;;;;16.88;9.07;;;;;;;1.35;72.25;99582.16;5068190;28;20049;-77
2023/03/01 09:38:24;;;;;;;16.75;8.98;;;;;;;1.27;72.44;99540.88;5068039;28;20049;-79
2023/03/01 09:40:51;;;;;;;27.33;12.88;;;;;;;1.44;74.07;99544.94;5068122;28;20051;-77
2023/03/01 09:43:27;;;;;;;22.23;11.13;;;;;;;1.66;71.54;99563.75;5068272;28;20056;-77
2023/03/01 09:45:56;;;;;;;24.13;11.68;;;;;;;1.64;72.11;99546.09;5060096;28;20420;-77
2023/03/01 09:48:27;;;;;;;22.00;10.75;;;;;;;1.58;70.72;99534.00;5069271;28;20056;-77
2023/03/01 09:50:54;;;;;;;25.45;12.57;;;;;;;1.68;71.18;99559.13;5068998;28;20056;-77
2023/03/01 09:53:31;;;;;;;19.35;9.10;;;;;;;1.83;70.49;99561.59;5067716;28;20044;-77
2023/03/01 09:56:01;;;;;;;21.75;9.70;;;;;;;1.92;69.87;99560.88;5060866;28;20047;-77
2023/03/01 09:58:39;;;;;;;25.25;9.82;;;;;;;1.85;69.84;99514.06;5067018;28;20072;-77
2023/03/01 10:01:22;;;;;;;20.95;10.35;;;;;;;2.00;69.60;99528.09;5068180;28;20045;-77
2023/03/01 10:04:03;;;;;;;28.92;11.10;;;;;;;2.22;70.21;99549.56;5063252;28;20064;-77
2023/03/01 10:06:29;;;;;;;24.80;11.40;;;;;;;2.22;68.70;99530.78;5066604;28;20203;-77
2023/03/01 10:09:01;;;;;;;16.33;9.27;;;;;;;2.21;68.57;99522.84;5068926;28;20059;-77
2023/03/01 10:11:31;;;;;;;19.27;9.90;;;;;;;2.29;68.45;99510.53;5067383;28;20496;-77
2023/03/01 10:14:03;;;;;;;16.13;8.82;;;;;;;2.50;67.56;99525.88;5067484;28;20049;-78
2023/03/01 10:16:41;;;;;;;17.95;8.98;;;;;;;2.54;68.47;99529.16;5068532;28;20123;-77
2023/03/01 10:19:13;;;;;;;22.40;10.73;;;;;;;2.52;66.78;99515.88;5068819;28;20059;-77
2023/03/01 10:21:45;;;;;;;24.38;10.85;;;;;;;2.65;66.32;99518.44;5066516;28;20049;-78
2023/03/01 10:24:18;;;;;;;19.15;10.30;;;;;;;2.56;66.93;99481.56;5068373;28;20053;-81
2023/03/01 10:26:52;;;;;;;26.38;11.02;;;;;;;2.91;65.98;99512.72;5064211;28;20075;-80
2023/03/01 10:29:24;;;;;;;16.85;8.40;;;;;;;2.88;66.09;99495.03;5066719;28;20053;-77
2023/03/01 10:31:53;;;;;;;20.35;10.70;;;;;;;3.06;67.07;99498.03;5066576;28;20068;-77
2023/03/01 10:34:22;;;;;;;21.63;10.83;;;;;;;3.09;65.50;99500.44;5067722;28;20052;-77
2023/03/01 10:36:52;;;;;;;17.92;8.93;;;;;;;3.10;64.44;99488.72;5067484;28;20063;-77
2023/03/01 10:39:21;;;;;;;16.58;8.32;;;;;;;2.91;65.29;99456.34;5064196;28;20067;-77
2023/03/01 10:42:00;;;;;;;17.88;8.18;;;;;;;3.08;66.72;99466.50;5061686;28;20044;-77
2023/03/01 10:44:39;;;;;;;23.33;11.93;;;;;;;3.16;64.30;99466.72;5065988;28;20055;-77
2023/03/01 10:47:05;;;;;;;20.67;10.93;;;;;;;3.41;64.51;99485.25;5065390;28;20311;-77
2023/03/01 10:49:32;;;;;;;22.70;11.02;;;;;;;3.34;64.88;99469.66;5067174;28;20049;-78
2023/03/01 10:52:18;;;;;;;20.83;10.95;;;;;;;3.65;64.65;99485.00;5066066;28;20041;-77
2023/03/01 10:54:53;;;;;;;19.52;8.95;;;;;;;3.73;64.59;99479.78;5065995;28;20037;-77
2023/03/01 10:57:31;;;;;;;27.30;10.68;;;;;;;3.77;63.40;99470.47;5067831;28;20119;-77
2023/03/01 11:00:18;;;;;;;24.38;11.05;;;;;;;3.86;64.08;99464.28;5068364;28;20102;-78
2023/03/01 11:02:48;;;;;;;25.02;10.45;;;;;;;3.88;64.15;99453.38;5064267;28;20048;-77
2023/03/01 11:05:19;;;;;;;;;;;;;;;3.96;62.46;99476.91;5066310;28;20041;-78
2023/03/01 11:07:49;;;;;;;20.88;9.90;;;;;;;3.91;63.44;99450.44;5067291;28;19927;-77
2023/03/01 11:10:21;;;;;;;18.70;9.98;;;;;;;3.92;63.02;99446.75;5064244;28;20049;-78
2023/03/01 11:12:47;;;;;;;25.30;10.63;;;;;;;4.10;63.58;99446.97;5062040;28;20127;-78
2023/03/01 11:15:23;;;;;;;21.65;10.65;;;;;;;4.16;61.91;99424.91;5070061;28;20060;-77
2023/03/01 11:17:50;;;;;;;22.48;11.40;;;;;;;4.16;62.91;99408.75;5066432;28;20049;-78
2023/03/01 11:20:25;;;;;;;23.08;11.43;;;;;;;4.35;62.89;99426.78;5070217;28;20507;-77
2023/03/01 11:22:55;;;;;;;21.38;10.50;;;;;;;4.37;61.33;99413.19;5068722;28;20055;-78
2023/03/01 11:25:26;;;;;;;22.55;10.35;;;;;;;4.50;60.75;99426.38;5069268;28;20053;-78
2023/03/01 11:27:54;;;;;;;21.52;10.25;;;;;;;4.35;60.04;99405.25;5050586;28;20044;-78
2023/03/01 11:30:24;;;;;;;19.42;10.25;;;;;;;4.45;60.72;99402.56;5069420;28;20049;-78
2023/03/01 11:32:59;;;;;;;;;;;;;;;4.78;61.30;99417.47;5063444;28;20247;-78